createdAt,value
2023-05-11T00:01:50.341Z,8.80
2023-05-11T00:05:51.987Z,10.07
2023-05-11T00:09:54.728Z,9.33
2023-05-11T00:13:55.559Z,8.80
2023-05-11T00:17:55.968Z,11.17
2023-05-11T00:21:56.144Z,10.27
2023-05-11T00:25:59.919Z,8.70
2023-05-11T00:30:00.368Z,9.43
2023-05-11T00:34:00.775Z,7.03
2023-05-11T00:38:01.129Z,9.40
2023-05-11T00:42:03.999Z,10.17
2023-05-11T00:46:05.548Z,8.53
2023-05-11T00:50:06.070Z,8.70
2023-05-11T00:54:13.213Z,8.40
2023-05-11T00:58:17.311Z,8.37
2023-05-11T01:02:17.727Z,10.00
2023-05-11T01:06:30.556Z,9.50
2023-05-11T01:10:45.129Z,7.63
2023-05-11T01:14:57.971Z,12.23
2023-05-11T01:19:08.309Z,8.20
2023-05-11T01:23:52.286Z,10.37
2023-05-11T01:28:18.396Z,9.30
2023-05-11T01:32:27.117Z,8.17
2023-05-11T01:36:35.444Z,7.13
2023-05-11T01:40:39.840Z,7.33
2023-05-11T01:44:45.660Z,10.53
2023-05-11T01:48:53.598Z,9.33
2023-05-11T01:52:55.902Z,7.67
2023-05-11T01:56:57.228Z,9.03
2023-05-11T02:01:00.398Z,7.83
2023-05-11T02:05:06.050Z,7.43
2023-05-11T02:09:07.304Z,7.33
2023-05-11T02:13:11.377Z,9.37
2023-05-11T02:17:13.636Z,8.00
2023-05-11T02:21:20.273Z,8.33
2023-05-11T02:25:21.706Z,7.00
2023-05-11T02:29:22.412Z,6.97
2023-05-11T02:33:28.698Z,8.07
2023-05-11T02:37:35.882Z,5.83
2023-05-11T02:41:42.326Z,7.13
2023-05-11T02:45:47.758Z,7.03
2023-05-11T02:49:54.545Z,6.67
2023-05-11T02:54:01.936Z,6.37
2023-05-11T02:58:06.807Z,7.67
2023-05-11T03:02:08.945Z,8.73
2023-05-11T03:06:09.733Z,6.57
2023-05-11T03:10:14.077Z,10.37
2023-05-11T03:14:17.422Z,7.83
2023-05-11T03:18:21.625Z,6.53
2023-05-11T03:22:23.815Z,8.80
2023-05-11T03:26:30.880Z,9.13
2023-05-11T03:30:36.081Z,8.00
2023-05-11T03:34:36.645Z,8.30
2023-05-11T03:38:39.597Z,7.83
2023-05-11T03:42:47.807Z,11.47
2023-05-11T03:46:50.776Z,9.37
2023-05-11T03:50:53.112Z,9.47
2023-05-11T03:54:53.673Z,8.17
2023-05-11T03:58:57.071Z,8.13
2023-05-11T04:02:59.099Z,9.13
2023-05-11T04:06:59.543Z,9.17
2023-05-11T04:11:00.294Z,9.67
2023-05-11T04:15:04.753Z,8.80
2023-05-11T04:19:06.690Z,8.10
2023-05-11T04:23:10.331Z,9.10
2023-05-11T04:27:10.732Z,10.33
2023-05-11T04:31:14.197Z,8.73
2023-05-11T04:35:14.977Z,7.77
2023-05-11T04:39:16.237Z,8.47
2023-05-11T04:43:16.963Z,8.20
2023-05-11T04:47:20.442Z,8.00
2023-05-11T04:51:21.188Z,9.00
2023-05-11T04:55:22.826Z,8.80
2023-05-11T04:59:24.686Z,7.80
2023-05-11T05:03:27.676Z,8.67
2023-05-11T05:07:28.713Z,8.97
2023-05-11T05:11:29.701Z,8.63
2023-05-11T05:15:30.630Z,8.30
2023-05-11T05:19:34.576Z,8.33
2023-05-11T05:23:35.228Z,8.83
2023-05-11T05:27:35.719Z,10.93
2023-05-11T05:31:40.666Z,7.53
2023-05-11T05:35:44.079Z,8.43
2023-05-11T05:39:47.688Z,10.83
2023-05-11T05:43:49.189Z,7.03
2023-05-11T05:47:51.931Z,8.03
2023-05-11T05:51:56.033Z,9.13
2023-05-11T05:55:56.658Z,7.77
2023-05-11T05:59:59.008Z,8.00
2023-05-11T06:03:59.475Z,9.10
2023-05-11T06:12:11.162Z,6.10
2023-05-11T06:16:16.687Z,6.77
2023-05-11T06:20:17.379Z,6.47
2023-05-11T06:24:20.817Z,5.33
2023-05-11T06:28:24.514Z,5.20
2023-05-11T06:32:27.673Z,5.27
2023-05-11T06:36:28.946Z,5.60
2023-05-11T06:40:31.872Z,7.77
2023-05-11T06:44:32.225Z,5.27
2023-05-11T06:48:32.937Z,6.87
2023-05-11T06:52:33.652Z,5.00
2023-05-11T06:56:39.638Z,8.13
2023-05-11T07:00:40.058Z,4.70
2023-05-11T07:04:40.373Z,4.40
2023-05-11T07:08:40.666Z,4.70
2023-05-11T07:12:43.838Z,4.93
2023-05-11T07:16:44.270Z,8.50
2023-05-11T07:20:47.099Z,4.50
2023-05-11T07:24:47.698Z,4.20
2023-05-11T07:28:50.752Z,4.60
2023-05-11T07:32:51.211Z,5.70
2023-05-11T07:36:51.451Z,4.93
2023-05-11T07:40:51.677Z,4.17
2023-05-11T07:44:54.824Z,3.93
2023-05-11T07:49:03.470Z,4.40
2023-05-11T07:53:14.583Z,4.37
2023-05-11T07:57:14.746Z,7.27
2023-05-11T08:01:17.759Z,7.00
2023-05-11T08:05:18.308Z,4.20
2023-05-11T08:09:18.822Z,4.73
2023-05-11T08:13:19.099Z,6.57
2023-05-11T08:17:21.931Z,3.37
2023-05-11T08:21:22.266Z,5.70
2023-05-11T08:25:22.685Z,5.07
2023-05-11T08:29:22.920Z,3.00
2023-05-11T08:37:30.878Z,5.10
2023-05-11T08:41:31.191Z,3.77
2023-05-11T08:45:34.820Z,3.10
2023-05-11T08:49:38.913Z,4.32
2023-05-11T08:53:39.221Z,4.37
2023-05-11T08:57:41.356Z,5.03
2023-05-11T09:01:44.748Z,4.37
2023-05-11T09:05:50.565Z,3.90
2023-05-11T09:09:51.525Z,3.53
2023-05-11T09:13:52.333Z,4.90
2023-05-11T09:17:52.693Z,4.00
2023-05-11T09:21:56.131Z,3.60
2023-05-11T09:25:56.823Z,3.60
2023-05-11T09:29:57.599Z,3.97
2023-05-11T09:34:14.182Z,3.17
2023-05-11T09:38:19.347Z,3.30
2023-05-11T09:42:21.936Z,4.13
2023-05-11T09:46:24.833Z,3.17
2023-05-11T09:50:26.477Z,2.58
2023-05-11T09:54:29.593Z,2.83
2023-05-11T09:58:29.790Z,2.20
2023-05-11T10:02:34.605Z,2.28
2023-05-11T10:06:51.323Z,2.03
2023-05-11T10:10:54.330Z,2.10
2023-05-11T10:14:58.027Z,1.77
2023-05-11T10:19:00.108Z,2.00
2023-05-11T10:23:00.360Z,4.60
2023-05-11T10:27:04.659Z,3.80
2023-05-11T10:31:07.853Z,3.50
2023-05-11T10:35:10.590Z,3.00
2023-05-11T10:39:10.889Z,2.00
2023-05-11T10:43:52.582Z,1.77
2023-05-11T10:48:27.912Z,2.43
2023-05-11T10:53:00.028Z,2.80
2023-05-11T10:57:36.550Z,1.70
2023-05-11T11:01:49.447Z,1.70
2023-05-11T11:05:49.883Z,1.97
2023-05-11T11:10:00.568Z,2.13
2023-05-11T11:14:04.735Z,2.10
2023-05-11T11:18:26.538Z,3.92
2023-05-11T11:22:52.454Z,3.70
2023-05-11T11:26:53.232Z,1.50
2023-05-11T11:31:29.676Z,3.17
2023-05-11T11:35:50.706Z,2.43
2023-05-11T11:40:13.249Z,2.60
2023-05-11T11:44:25.386Z,3.15
2023-05-11T11:48:33.756Z,2.40
2023-05-11T11:52:39.470Z,2.40
2023-05-11T11:56:47.112Z,2.43
2023-05-11T12:00:51.480Z,2.70
2023-05-11T12:05:00.100Z,3.45
2023-05-11T12:09:04.046Z,4.30
2023-05-11T12:13:05.150Z,1.80
2023-05-11T12:17:15.594Z,3.47
2023-05-11T12:21:23.709Z,2.10
2023-05-11T12:25:26.506Z,2.20
2023-05-11T12:29:27.064Z,1.20
2023-05-11T12:33:27.514Z,1.90
2023-05-11T12:37:28.196Z,1.50
2023-05-11T12:41:30.994Z,2.57
2023-05-11T12:45:32.404Z,1.40
2023-05-11T12:49:34.209Z,1.20
2023-05-11T12:53:39.141Z,1.13
2023-05-11T12:57:43.847Z,1.20
2023-05-11T13:01:44.490Z,1.70
2023-05-11T13:05:44.751Z,1.83
2023-05-11T13:09:45.539Z,2.13
2023-05-11T13:13:48.432Z,2.15
2023-05-11T13:17:59.153Z,1.90
2023-05-11T13:22:01.680Z,2.00
2023-05-11T13:26:02.198Z,9.10
2023-05-11T13:30:08.633Z,11.85
2023-05-11T13:34:09.501Z,11.30
2023-05-11T13:38:11.842Z,4.90
2023-05-11T13:42:12.142Z,1.70
2023-05-11T13:46:15.653Z,2.67
2023-05-11T13:50:16.471Z,3.27
2023-05-11T13:54:16.848Z,4.10
2023-05-11T13:58:18.031Z,4.03
2023-05-11T14:02:20.888Z,2.40
2023-05-11T14:06:21.212Z,1.80
2023-05-11T14:10:22.681Z,2.30
2023-05-11T14:14:23.078Z,2.47
2023-05-11T14:18:31.197Z,2.90
2023-05-11T14:22:31.617Z,2.63
2023-05-11T14:26:31.812Z,2.40
2023-05-11T14:30:32.051Z,3.03
2023-05-11T14:34:35.030Z,2.27
2023-05-11T14:38:35.267Z,3.53
2023-05-11T14:42:35.574Z,4.70
2023-05-11T14:46:36.335Z,4.97
2023-05-11T14:50:39.135Z,3.83
2023-05-11T14:54:39.430Z,4.20
2023-05-11T14:58:41.871Z,5.17
2023-05-11T15:02:42.798Z,5.80
2023-05-11T15:06:46.844Z,10.07
2023-05-11T15:10:47.137Z,5.40
2023-05-11T15:14:47.255Z,3.73
2023-05-11T15:18:49.982Z,5.60
2023-05-11T15:22:53.048Z,6.10
2023-05-11T15:26:53.298Z,5.77
2023-05-11T15:30:53.556Z,8.77
2023-05-11T15:34:59.689Z,4.63
2023-05-11T15:39:03.081Z,3.60
2023-05-11T15:43:03.450Z,7.23
2023-05-11T15:47:04.347Z,6.07
2023-05-11T15:51:05.084Z,8.33
2023-05-11T15:55:08.974Z,7.63
2023-05-11T15:59:09.412Z,6.93
2023-05-11T16:03:09.945Z,6.80
2023-05-11T16:07:10.385Z,6.93
2023-05-11T16:11:13.272Z,6.37
2023-05-11T16:15:14.323Z,6.30
2023-05-11T16:19:14.935Z,6.63
2023-05-11T16:23:15.652Z,5.13
2023-05-11T16:27:18.609Z,6.73
2023-05-11T16:31:18.910Z,5.57
2023-05-11T16:35:19.300Z,5.77
2023-05-11T16:39:19.578Z,5.77
2023-05-11T16:43:22.345Z,6.60
2023-05-11T16:47:22.774Z,5.80
2023-05-11T16:51:23.062Z,5.70
2023-05-11T16:55:23.571Z,6.53
2023-05-11T16:59:26.841Z,6.43
2023-05-11T17:03:27.174Z,7.20
2023-05-11T17:07:29.084Z,7.47
2023-05-11T17:11:29.290Z,8.53
2023-05-11T17:15:32.478Z,9.73
2023-05-11T17:19:32.799Z,9.60
2023-05-11T17:23:34.131Z,10.00
2023-05-11T17:27:35.187Z,12.03
2023-05-11T17:31:38.238Z,14.40
2023-05-11T17:35:38.804Z,27.00
2023-05-11T17:39:39.127Z,38.33
2023-05-11T17:43:39.371Z,41.93
2023-05-11T17:47:42.723Z,55.00
2023-05-11T17:51:42.947Z,18.70
2023-05-11T17:55:44.428Z,18.37
2023-05-11T17:59:44.681Z,25.40
2023-05-11T18:03:48.808Z,10.33
2023-05-11T18:07:49.528Z,11.13
2023-05-11T18:11:50.898Z,30.90
2023-05-11T18:15:51.698Z,15.70
2023-05-11T18:19:54.693Z,42.67
2023-05-11T18:23:55.007Z,65.07
2023-05-11T18:27:55.407Z,40.57
2023-05-11T18:31:56.052Z,21.37
2023-05-11T18:35:58.954Z,27.37
2023-05-11T18:39:59.170Z,29.33
2023-05-11T18:44:00.458Z,24.70
2023-05-11T18:48:00.916Z,33.13
2023-05-11T18:52:04.178Z,26.53
2023-05-11T18:56:04.421Z,15.73
2023-05-11T19:00:05.662Z,19.43
2023-05-11T19:04:07.232Z,14.53
2023-05-11T19:08:10.657Z,9.40
2023-05-11T19:12:11.891Z,9.83
2023-05-11T19:16:12.467Z,10.57
2023-05-11T19:20:13.723Z,11.10
2023-05-11T19:24:16.660Z,13.00
2023-05-11T19:28:16.912Z,15.60
2023-05-11T19:32:19.198Z,14.80
2023-05-11T19:36:19.768Z,11.83
2023-05-11T19:44:32.972Z,13.50
2023-05-11T19:48:33.544Z,14.87
2023-05-11T19:52:34.045Z,12.20
2023-05-11T19:56:37.355Z,12.23
2023-05-11T20:00:37.777Z,12.67
2023-05-11T20:04:38.143Z,9.57
2023-05-11T20:08:38.338Z,10.23
2023-05-11T20:12:42.243Z,11.03
2023-05-11T20:16:42.644Z,10.33
2023-05-11T20:20:43.043Z,10.23
2023-05-11T20:24:45.647Z,14.03
2023-05-11T20:28:48.877Z,12.20
2023-05-11T20:36:53.956Z,12.63
2023-05-11T20:41:00.126Z,12.63
2023-05-11T20:45:07.533Z,12.80
2023-05-11T20:49:08.342Z,10.00
2023-05-11T20:53:08.831Z,8.87
2023-05-11T20:57:10.099Z,8.07
2023-05-11T21:01:13.606Z,9.90
2023-05-11T21:05:14.013Z,10.83
2023-05-11T21:09:14.819Z,11.17
2023-05-11T21:13:17.874Z,11.53
2023-05-11T21:17:22.454Z,14.30
2023-05-11T21:21:30.087Z,11.43
2023-05-11T21:25:31.677Z,12.23
2023-05-11T21:29:37.833Z,14.37
2023-05-11T21:33:42.001Z,10.90
2023-05-11T21:37:45.764Z,10.37
2023-05-11T21:41:48.286Z,9.50
2023-05-11T21:45:50.813Z,13.17
2023-05-11T21:49:54.735Z,10.57
2023-05-11T21:53:56.815Z,11.60
2023-05-11T21:57:58.829Z,12.60
2023-05-11T22:02:00.455Z,13.07
2023-05-11T22:06:05.340Z,10.20
2023-05-11T22:10:05.882Z,14.13
2023-05-11T22:14:06.606Z,11.23
2023-05-11T22:18:07.094Z,12.87
2023-05-11T22:22:10.268Z,11.30
2023-05-11T22:26:10.625Z,12.67
2023-05-11T22:30:12.993Z,9.73
2023-05-11T22:34:13.287Z,11.30
2023-05-11T22:38:16.445Z,13.07
2023-05-11T22:42:16.642Z,12.13
2023-05-11T22:46:17.488Z,11.93
2023-05-11T22:50:18.232Z,11.33
2023-05-11T22:54:21.429Z,11.60
2023-05-11T22:58:22.819Z,10.77
2023-05-11T23:02:23.205Z,10.80
2023-05-11T23:06:23.759Z,11.00
2023-05-11T23:10:27.508Z,9.70
2023-05-11T23:14:27.792Z,10.03
2023-05-11T23:18:28.347Z,11.50
2023-05-11T23:22:29.065Z,12.30
2023-05-11T23:26:31.887Z,11.97
2023-05-11T23:30:32.290Z,12.50
2023-05-11T23:34:33.411Z,13.30
2023-05-11T23:38:38.395Z,13.97
2023-05-11T23:42:41.525Z,11.57
2023-05-11T23:46:41.885Z,13.63
2023-05-11T23:50:42.086Z,9.90
2023-05-11T23:54:42.788Z,10.83
2023-05-11T23:58:46.279Z,11.03
